createdAt,value
2019-03-20T00:02:11.295Z,4.03
2019-03-20T00:04:48.977Z,4.80
2019-03-20T00:07:07.466Z,5.28
2019-03-20T00:09:34.680Z,3.80
2019-03-20T00:12:01.896Z,4.00
2019-03-20T00:14:29.111Z,4.08
2019-03-20T00:16:56.363Z,3.45
2019-03-20T00:19:23.583Z,3.92
2019-03-20T00:21:50.812Z,4.12
2019-03-20T00:24:18.023Z,4.15
2019-03-20T00:26:45.248Z,4.47
2019-03-20T00:29:12.480Z,4.15
2019-03-20T00:31:39.698Z,4.40
2019-03-20T00:34:06.915Z,4.47
2019-03-20T00:36:34.131Z,4.70
2019-03-20T00:39:01.354Z,4.97
2019-03-20T00:41:28.577Z,3.75
2019-03-20T00:43:55.791Z,3.35
2019-03-20T00:46:23.002Z,4.30
2019-03-20T00:48:50.225Z,4.17
2019-03-20T00:51:17.434Z,3.72
2019-03-20T00:53:44.642Z,4.28
2019-03-20T00:56:11.862Z,3.45
2019-03-20T00:58:39.850Z,4.90
2019-03-20T01:01:07.170Z,4.10
2019-03-20T01:03:34.388Z,4.70
2019-03-20T01:06:01.602Z,3.58
2019-03-20T01:08:28.824Z,4.50
2019-03-20T01:10:56.040Z,4.72
2019-03-20T01:13:23.267Z,4.97
2019-03-20T01:15:50.476Z,4.15
2019-03-20T01:18:17.706Z,4.65
2019-03-20T01:20:44.922Z,4.00
2019-03-20T01:23:12.142Z,4.40
2019-03-20T01:25:39.355Z,3.83
2019-03-20T01:28:06.579Z,4.62
2019-03-20T01:30:39.944Z,4.67
2019-03-20T01:33:08.708Z,3.72
2019-03-20T01:35:35.943Z,4.03
2019-03-20T01:38:03.150Z,3.62
2019-03-20T01:40:30.357Z,3.77
2019-03-20T01:42:57.583Z,3.50
2019-03-20T01:45:24.873Z,4.15
2019-03-20T01:47:52.099Z,5.87
2019-03-20T01:50:19.329Z,4.72
2019-03-20T01:52:47.148Z,3.15
2019-03-20T01:55:14.363Z,3.30
2019-03-20T01:57:41.586Z,4.67
2019-03-20T02:00:09.396Z,4.60
2019-03-20T02:02:36.620Z,4.95
2019-03-20T02:05:04.202Z,4.08
2019-03-20T02:07:31.418Z,4.72
2019-03-20T02:09:58.635Z,4.37
2019-03-20T02:12:25.885Z,4.22
2019-03-20T02:14:53.072Z,4.45
2019-03-20T02:17:20.295Z,3.42
2019-03-20T02:19:47.509Z,4.30
2019-03-20T02:22:14.729Z,3.87
2019-03-20T02:24:41.942Z,4.92
2019-03-20T02:27:09.163Z,3.22
2019-03-20T02:29:36.371Z,4.20
2019-03-20T02:32:03.969Z,3.27
2019-03-20T02:34:31.179Z,3.52
2019-03-20T02:36:58.410Z,4.55
2019-03-20T02:39:25.691Z,3.05
2019-03-20T02:41:52.883Z,2.80
2019-03-20T02:44:20.102Z,3.62
2019-03-20T02:46:47.328Z,4.30
2019-03-20T02:49:14.548Z,3.70
2019-03-20T02:51:41.771Z,3.40
2019-03-20T02:54:08.979Z,3.42
2019-03-20T02:56:36.187Z,3.22
2019-03-20T02:59:03.432Z,3.22
2019-03-20T03:01:30.639Z,2.90
2019-03-20T03:03:57.869Z,4.70
2019-03-20T03:06:25.082Z,3.67
2019-03-20T03:08:52.319Z,4.83
2019-03-20T03:11:19.523Z,3.65
2019-03-20T03:13:46.750Z,3.85
2019-03-20T03:16:13.952Z,4.33
2019-03-20T03:18:41.169Z,4.00
2019-03-20T03:21:08.382Z,3.00
2019-03-20T03:23:35.601Z,3.20
2019-03-20T03:26:02.807Z,3.52
2019-03-20T03:28:30.052Z,4.12
2019-03-20T03:30:57.256Z,4.78
2019-03-20T03:33:24.494Z,4.08
2019-03-20T03:35:51.714Z,5.22
2019-03-20T03:38:18.928Z,3.98
2019-03-20T03:40:46.135Z,3.27
2019-03-20T03:43:13.355Z,3.65
2019-03-20T03:45:40.575Z,3.87
2019-03-20T03:48:07.797Z,4.45
2019-03-20T03:50:35.014Z,3.10
2019-03-20T03:53:02.238Z,3.12
2019-03-20T03:55:29.453Z,3.55
2019-03-20T03:57:56.741Z,3.50
2019-03-20T04:00:23.974Z,3.30
2019-03-20T04:02:51.171Z,3.72
2019-03-20T04:05:18.669Z,4.55
2019-03-20T04:07:45.894Z,3.27
2019-03-20T04:10:14.188Z,3.52
2019-03-20T04:12:41.397Z,3.95
2019-03-20T04:15:12.833Z,3.45
2019-03-20T04:17:40.047Z,4.53
2019-03-20T04:20:08.943Z,2.42
2019-03-20T04:22:36.174Z,3.70
2019-03-20T04:25:04.159Z,4.33
2019-03-20T04:27:31.444Z,4.42
2019-03-20T04:29:58.661Z,4.15
2019-03-20T04:32:25.871Z,3.60
2019-03-20T04:34:53.097Z,3.20
2019-03-20T04:37:20.319Z,3.95
2019-03-20T04:39:47.535Z,3.65
2019-03-20T04:42:14.756Z,4.40
2019-03-20T04:44:41.967Z,3.22
2019-03-20T04:47:09.179Z,4.05
2019-03-20T04:49:36.394Z,5.05
2019-03-20T04:52:03.627Z,4.20
2019-03-20T04:54:30.831Z,4.35
2019-03-20T04:56:58.047Z,5.10
2019-03-20T04:59:25.275Z,4.47
2019-03-20T05:01:52.483Z,3.67
2019-03-20T05:04:19.703Z,3.67
2019-03-20T05:06:57.966Z,3.12
2019-03-20T05:09:15.867Z,3.92
2019-03-20T05:11:43.097Z,3.25
2019-03-20T05:14:12.385Z,3.70
2019-03-20T05:16:39.303Z,3.70
2019-03-20T05:19:06.534Z,3.85
2019-03-20T05:21:33.769Z,4.17
2019-03-20T05:24:00.962Z,3.12
2019-03-20T05:26:28.183Z,3.50
2019-03-20T05:28:55.422Z,3.72
2019-03-20T05:31:22.623Z,4.33
2019-03-20T05:33:49.827Z,4.08
2019-03-20T05:36:17.057Z,3.05
2019-03-20T05:38:44.353Z,3.77
2019-03-20T05:41:11.576Z,3.75
2019-03-20T05:43:38.816Z,3.40
2019-03-20T05:46:06.018Z,3.55
2019-03-20T05:48:33.234Z,3.67
2019-03-20T05:51:00.466Z,3.98
2019-03-20T05:53:27.670Z,2.85
2019-03-20T05:55:54.898Z,3.40
2019-03-20T05:58:22.110Z,4.87
2019-03-20T06:00:49.330Z,3.52
2019-03-20T06:03:16.547Z,3.83
2019-03-20T06:05:43.770Z,3.52
2019-03-20T06:08:10.985Z,3.65
2019-03-20T06:10:38.207Z,3.65
2019-03-20T06:13:05.427Z,3.70
2019-03-20T06:15:32.700Z,4.30
2019-03-20T06:17:59.942Z,4.37
2019-03-20T06:20:27.187Z,4.30
2019-03-20T06:22:54.455Z,3.80
2019-03-20T06:25:21.779Z,3.25
2019-03-20T06:27:49.172Z,3.05
2019-03-20T06:30:19.551Z,2.83
2019-03-20T06:32:46.764Z,3.62
2019-03-20T06:35:13.979Z,3.65
2019-03-20T06:37:41.200Z,3.62
2019-03-20T06:40:09.959Z,4.87
2019-03-20T06:42:37.192Z,3.75
2019-03-20T06:45:05.962Z,3.77
2019-03-20T06:47:33.186Z,3.98
2019-03-20T06:50:00.404Z,3.70
2019-03-20T06:52:27.622Z,4.15
2019-03-20T06:54:54.829Z,3.52
2019-03-20T06:57:22.057Z,4.80
2019-03-20T07:00:07.808Z,5.05
2019-03-20T07:02:34.927Z,3.40
2019-03-20T07:05:15.651Z,4.17
2019-03-20T07:07:44.278Z,4.15
2019-03-20T07:10:16.234Z,3.12
2019-03-20T07:12:43.455Z,5.35
2019-03-20T07:15:10.669Z,4.80
2019-03-20T07:17:37.887Z,3.80
2019-03-20T07:20:06.641Z,3.58
2019-03-20T07:22:33.863Z,4.85
2019-03-20T07:25:01.084Z,3.90
2019-03-20T07:27:28.303Z,4.03
2019-03-20T07:29:55.528Z,4.85
2019-03-20T07:32:22.743Z,4.60
2019-03-20T07:34:49.971Z,3.87
2019-03-20T07:37:17.182Z,4.47
2019-03-20T07:39:44.398Z,4.70
2019-03-20T07:42:11.631Z,4.65
2019-03-20T07:44:38.839Z,5.12
2019-03-20T07:47:06.063Z,5.45
2019-03-20T07:49:33.279Z,4.15
2019-03-20T07:52:00.502Z,4.05
2019-03-20T07:54:27.718Z,5.78
2019-03-20T07:56:54.946Z,4.12
2019-03-20T07:59:22.159Z,5.00
2019-03-20T08:01:49.382Z,5.20
2019-03-20T08:04:16.607Z,4.35
2019-03-20T08:06:43.811Z,5.30
2019-03-20T08:09:11.057Z,5.50
2019-03-20T08:11:38.271Z,4.35
2019-03-20T08:14:05.501Z,4.47
2019-03-20T08:16:32.723Z,4.60
2019-03-20T08:18:59.942Z,4.85
2019-03-20T08:21:27.172Z,5.50
2019-03-20T08:23:54.402Z,4.95
2019-03-20T08:26:21.631Z,5.40
2019-03-20T08:28:48.855Z,5.27
2019-03-20T08:31:16.071Z,5.23
2019-03-20T08:33:43.301Z,5.90
2019-03-20T08:36:10.516Z,5.77
2019-03-20T08:38:37.726Z,4.50
2019-03-20T08:41:04.944Z,4.70
2019-03-20T08:43:32.226Z,3.93
2019-03-20T08:45:59.510Z,5.90
2019-03-20T08:48:26.804Z,4.70
2019-03-20T08:50:54.057Z,4.57
2019-03-20T08:53:21.267Z,4.00
2019-03-20T08:55:48.487Z,4.40
2019-03-20T08:58:15.767Z,4.63
2019-03-20T09:00:43.014Z,5.00
2019-03-20T09:03:10.224Z,3.73
2019-03-20T09:05:37.438Z,3.80
2019-03-20T09:08:04.655Z,3.97
2019-03-20T09:10:31.881Z,4.30
2019-03-20T09:12:59.150Z,4.10
2019-03-20T09:15:26.350Z,4.20
2019-03-20T09:17:53.621Z,4.97
2019-03-20T09:20:21.297Z,5.73
2019-03-20T09:22:48.580Z,4.63
2019-03-20T09:25:16.864Z,3.87
2019-03-20T09:27:44.552Z,4.47
2019-03-20T09:30:19.238Z,5.10
2019-03-20T09:32:46.451Z,5.80
2019-03-20T09:35:13.671Z,4.23
2019-03-20T09:37:51.214Z,5.00
2019-03-20T09:40:11.434Z,5.93
2019-03-20T09:42:38.651Z,4.40
2019-03-20T09:45:09.604Z,4.70
2019-03-20T09:47:36.824Z,4.87
2019-03-20T09:50:05.651Z,5.80
2019-03-20T09:52:32.851Z,4.00
2019-03-20T09:55:00.082Z,4.10
2019-03-20T09:57:27.359Z,3.03
2019-03-20T09:59:54.579Z,3.43
2019-03-20T10:02:21.791Z,2.70
2019-03-20T10:04:49.007Z,2.57
2019-03-20T10:07:16.223Z,2.70
2019-03-20T10:09:43.434Z,2.90
2019-03-20T10:12:10.695Z,2.70
2019-03-20T10:14:37.960Z,3.60
2019-03-20T10:17:05.210Z,3.53
2019-03-20T10:19:32.462Z,4.17
2019-03-20T10:21:59.721Z,3.50
2019-03-20T10:24:26.923Z,3.00
2019-03-20T10:26:54.130Z,2.40
2019-03-20T10:29:21.353Z,3.93
2019-03-20T10:31:48.610Z,2.50
2019-03-20T10:34:15.817Z,4.20
2019-03-20T10:36:43.078Z,2.43
2019-03-20T10:39:10.417Z,2.53
2019-03-20T10:41:37.758Z,2.30
2019-03-20T10:44:05.009Z,2.17
2019-03-20T10:46:32.257Z,2.47
2019-03-20T10:48:59.614Z,2.77
2019-03-20T10:51:26.862Z,3.20
2019-03-20T10:53:54.117Z,3.00
2019-03-20T10:56:21.367Z,2.23
2019-03-20T10:58:48.618Z,2.87
2019-03-20T11:01:15.888Z,2.43
2019-03-20T11:03:43.128Z,2.80
2019-03-20T11:06:10.494Z,3.20
2019-03-20T11:08:37.806Z,3.13
2019-03-20T11:11:05.069Z,2.53
2019-03-20T11:13:32.313Z,2.07
2019-03-20T11:15:59.562Z,2.40
2019-03-20T11:18:26.810Z,2.37
2019-03-20T11:20:54.066Z,2.60
2019-03-20T11:23:21.315Z,2.87
2019-03-20T11:25:48.570Z,2.37
2019-03-20T11:28:15.822Z,3.37
2019-03-20T11:30:43.082Z,2.63
2019-03-20T11:33:10.338Z,1.70
2019-03-20T11:35:37.587Z,2.33
2019-03-20T11:38:05.304Z,2.30
2019-03-20T11:40:33.432Z,2.27
2019-03-20T11:43:00.685Z,1.93
2019-03-20T11:45:28.003Z,2.10
2019-03-20T11:47:55.251Z,2.47
2019-03-20T11:50:24.042Z,2.37
2019-03-20T11:52:51.690Z,2.50
2019-03-20T11:55:18.963Z,3.20
2019-03-20T11:57:46.289Z,2.50
2019-03-20T12:00:14.906Z,2.90
2019-03-20T12:02:42.156Z,2.30
2019-03-20T12:05:09.415Z,3.03
2019-03-20T12:07:36.667Z,2.20
2019-03-20T12:10:05.463Z,2.43
2019-03-20T12:12:32.714Z,2.43
2019-03-20T12:14:59.966Z,2.10
2019-03-20T12:17:27.215Z,2.57
2019-03-20T12:19:54.474Z,2.70
2019-03-20T12:22:21.719Z,2.70
2019-03-20T12:24:48.977Z,2.77
2019-03-20T12:27:16.222Z,2.70
2019-03-20T12:29:43.479Z,2.70
2019-03-20T12:32:10.738Z,3.07
2019-03-20T12:34:37.986Z,3.40
2019-03-20T12:37:05.243Z,2.20
2019-03-20T12:39:32.490Z,3.00
2019-03-20T12:41:59.749Z,2.40
2019-03-20T12:44:27.008Z,1.83
2019-03-20T12:46:54.334Z,1.90
2019-03-20T12:49:21.582Z,1.70
2019-03-20T12:51:48.853Z,1.97
2019-03-20T12:54:16.100Z,1.80
2019-03-20T12:56:43.357Z,2.27
2019-03-20T12:59:10.621Z,2.33
2019-03-20T13:01:37.874Z,2.00
2019-03-20T13:04:05.125Z,2.47
2019-03-20T13:06:32.378Z,2.00
2019-03-20T13:08:59.635Z,2.70
2019-03-20T13:11:26.898Z,2.33
2019-03-20T13:13:54.169Z,2.10
2019-03-20T13:16:21.481Z,2.23
2019-03-20T13:18:48.726Z,1.90
2019-03-20T13:21:15.985Z,2.40
2019-03-20T13:23:43.233Z,1.80
2019-03-20T13:26:10.494Z,1.90
2019-03-20T13:28:37.742Z,1.80
2019-03-20T13:31:06.541Z,1.60
2019-03-20T13:33:33.795Z,2.00
2019-03-20T13:36:01.054Z,1.87
2019-03-20T13:38:28.345Z,2.20
2019-03-20T13:40:56.038Z,2.17
2019-03-20T13:43:23.286Z,2.23
2019-03-20T13:45:50.539Z,3.20
2019-03-20T13:48:17.797Z,3.57
2019-03-20T13:50:45.046Z,2.20
2019-03-20T13:53:12.298Z,2.47
2019-03-20T13:55:39.559Z,3.47
2019-03-20T13:58:06.806Z,2.47
2019-03-20T14:00:34.066Z,2.37
2019-03-20T14:03:01.319Z,1.90
2019-03-20T14:05:28.573Z,2.07
2019-03-20T14:07:55.837Z,2.20
2019-03-20T14:10:30.018Z,2.03
2019-03-20T14:12:57.270Z,1.70
2019-03-20T14:15:24.517Z,2.00
2019-03-20T14:17:51.782Z,2.33
2019-03-20T14:20:23.219Z,2.70
2019-03-20T14:22:50.479Z,2.40
2019-03-20T14:25:17.724Z,2.30
2019-03-20T14:27:44.983Z,2.37
2019-03-20T14:30:16.055Z,2.07
2019-03-20T14:32:43.307Z,1.93
2019-03-20T14:35:10.554Z,2.33
2019-03-20T14:37:37.823Z,2.50
2019-03-20T14:40:06.840Z,2.40
2019-03-20T14:42:34.106Z,2.10
2019-03-20T14:45:01.355Z,2.00
2019-03-20T14:47:28.618Z,2.53
2019-03-20T14:49:55.870Z,2.20
2019-03-20T14:52:23.145Z,2.17
2019-03-20T14:54:50.391Z,2.10
2019-03-20T14:57:17.651Z,2.30
2019-03-20T14:59:44.914Z,2.10
2019-03-20T15:02:12.166Z,2.53
2019-03-20T15:04:39.423Z,1.73
2019-03-20T15:07:06.671Z,1.70
2019-03-20T15:09:33.914Z,2.20
2019-03-20T15:12:01.166Z,2.30
2019-03-20T15:14:28.423Z,3.20
2019-03-20T15:16:55.674Z,1.80
2019-03-20T15:19:22.927Z,2.00
2019-03-20T15:21:50.191Z,2.10
2019-03-20T15:24:17.436Z,2.50
2019-03-20T15:26:44.689Z,2.57
2019-03-20T15:29:11.943Z,4.30
2019-03-20T15:31:39.222Z,2.10
2019-03-20T15:34:06.528Z,1.53
2019-03-20T15:36:33.774Z,2.63
2019-03-20T15:39:01.038Z,2.50
2019-03-20T15:41:28.282Z,2.57
2019-03-20T15:44:02.363Z,1.93
2019-03-20T15:46:24.510Z,2.67
2019-03-20T15:48:51.774Z,4.47
2019-03-20T15:51:19.023Z,2.17
2019-03-20T15:53:46.274Z,2.13
2019-03-20T15:56:13.530Z,2.23
2019-03-20T15:58:40.782Z,2.03
2019-03-20T16:01:09.154Z,4.00
2019-03-20T16:03:38.046Z,2.60
2019-03-20T16:06:05.336Z,2.50
2019-03-20T16:08:32.594Z,2.10
2019-03-20T16:11:06.446Z,3.33
2019-03-20T16:13:28.822Z,2.63
2019-03-20T16:15:56.078Z,2.17
2019-03-20T16:18:23.330Z,2.03
2019-03-20T16:20:50.574Z,2.20
2019-03-20T16:23:17.837Z,2.50
2019-03-20T16:25:45.081Z,2.00
2019-03-20T16:28:12.338Z,2.30
2019-03-20T16:30:39.585Z,2.43
2019-03-20T16:33:06.844Z,2.20
2019-03-20T16:35:34.094Z,2.40
2019-03-20T16:38:01.362Z,2.33
2019-03-20T16:40:30.162Z,2.20
2019-03-20T16:42:57.418Z,2.50
2019-03-20T16:45:31.229Z,1.90
2019-03-20T16:47:58.495Z,2.60
2019-03-20T16:50:25.738Z,1.67
2019-03-20T16:52:53.073Z,1.70
2019-03-20T16:55:21.658Z,1.80
2019-03-20T16:57:48.929Z,1.70
2019-03-20T17:00:20.542Z,2.03
2019-03-20T17:02:47.810Z,2.43
2019-03-20T17:05:15.126Z,2.20
2019-03-20T17:07:42.375Z,2.10
2019-03-20T17:10:11.174Z,2.20
2019-03-20T17:12:38.427Z,2.20
2019-03-20T17:15:07.239Z,2.33
2019-03-20T17:17:34.482Z,2.27
2019-03-20T17:20:01.739Z,2.33
2019-03-20T17:22:28.990Z,2.57
2019-03-20T17:24:56.246Z,2.47
2019-03-20T17:27:23.502Z,2.57
2019-03-20T17:29:51.126Z,2.30
2019-03-20T17:32:18.442Z,2.57
2019-03-20T17:34:45.738Z,3.10
2019-03-20T17:37:12.998Z,2.43
2019-03-20T17:39:40.278Z,3.00
2019-03-20T17:42:07.557Z,2.50
2019-03-20T17:44:34.863Z,1.77
2019-03-20T17:47:02.113Z,2.43
2019-03-20T17:49:29.370Z,2.53
2019-03-20T17:51:56.614Z,3.13
2019-03-20T17:54:23.884Z,2.47
2019-03-20T17:56:51.523Z,3.00
2019-03-20T17:59:18.774Z,3.07
2019-03-20T18:01:46.065Z,2.60
2019-03-20T18:04:13.365Z,2.40
2019-03-20T18:06:40.627Z,3.20
2019-03-20T18:09:07.970Z,2.50
2019-03-20T18:11:35.226Z,3.07
2019-03-20T18:14:02.491Z,3.53
2019-03-20T18:16:29.751Z,4.05
2019-03-20T18:18:57.010Z,4.47
2019-03-20T18:21:24.274Z,3.42
2019-03-20T18:23:51.542Z,2.65
2019-03-20T18:26:18.815Z,3.33
2019-03-20T18:28:46.079Z,3.90
2019-03-20T18:31:13.351Z,6.65
2019-03-20T18:33:40.617Z,4.85
2019-03-20T18:36:07.878Z,6.90
2019-03-20T18:38:37.657Z,7.80
2019-03-20T18:41:04.943Z,6.95
2019-03-20T18:43:32.198Z,4.95
2019-03-20T18:45:59.477Z,6.55
2019-03-20T18:48:26.687Z,4.95
2019-03-20T18:50:53.918Z,3.50
2019-03-20T18:53:21.194Z,3.90
2019-03-20T18:55:48.430Z,3.85
2019-03-20T18:58:15.642Z,3.00
2019-03-20T19:00:42.872Z,3.72
2019-03-20T19:03:17.773Z,3.65
2019-03-20T19:05:49.233Z,2.50
2019-03-20T19:08:16.522Z,2.95
2019-03-20T19:10:43.830Z,4.00
2019-03-20T19:13:11.122Z,3.75
2019-03-20T19:15:38.351Z,3.90
2019-03-20T19:18:05.571Z,4.65
2019-03-20T19:20:32.801Z,4.78
2019-03-20T19:23:00.026Z,4.87
2019-03-20T19:25:27.311Z,4.22
2019-03-20T19:27:54.532Z,4.45
2019-03-20T19:30:25.210Z,4.15
2019-03-20T19:32:52.425Z,4.15
2019-03-20T19:35:19.718Z,5.78
2019-03-20T19:37:46.940Z,4.37
2019-03-20T19:40:15.128Z,3.85
2019-03-20T19:42:42.350Z,4.08
2019-03-20T19:45:10.742Z,4.80
2019-03-20T19:47:37.958Z,4.70
2019-03-20T19:50:07.046Z,4.20
2019-03-20T19:52:34.256Z,4.17
2019-03-20T19:55:01.487Z,4.25
2019-03-20T19:57:28.768Z,3.77
2019-03-20T19:59:55.970Z,3.95
2019-03-20T20:02:23.205Z,5.15
2019-03-20T20:04:50.423Z,5.22
2019-03-20T20:07:17.654Z,5.83
2019-03-20T20:09:44.900Z,8.00
2019-03-20T20:12:12.106Z,8.70
2019-03-20T20:14:39.323Z,9.53
2019-03-20T20:17:06.547Z,8.20
2019-03-20T20:19:33.767Z,8.30
2019-03-20T20:22:00.996Z,5.97
2019-03-20T20:24:28.219Z,5.75
2019-03-20T20:26:55.445Z,5.50
2019-03-20T20:29:22.658Z,5.67
2019-03-20T20:31:49.879Z,4.70
2019-03-20T20:34:17.467Z,4.45
2019-03-20T20:36:44.694Z,5.10
2019-03-20T20:39:11.907Z,5.55
2019-03-20T20:41:39.194Z,5.62
2019-03-20T20:44:06.879Z,5.20
2019-03-20T20:46:34.315Z,7.47
2019-03-20T20:49:01.527Z,6.28
2019-03-20T20:51:28.750Z,4.80
2019-03-20T20:53:55.969Z,4.67
2019-03-20T20:56:23.187Z,4.22
2019-03-20T20:58:50.406Z,5.25
2019-03-20T21:01:17.627Z,4.42
2019-03-20T21:03:44.843Z,3.67
2019-03-20T21:06:12.926Z,4.92
2019-03-20T21:08:40.115Z,4.55
2019-03-20T21:11:07.339Z,4.97
2019-03-20T21:13:34.559Z,4.97
2019-03-20T21:16:01.779Z,5.35
2019-03-20T21:18:42.727Z,5.20
2019-03-20T21:21:09.954Z,4.65
2019-03-20T21:23:38.710Z,5.33
2019-03-20T21:26:07.487Z,5.50
2019-03-20T21:28:53.062Z,4.80
2019-03-20T21:31:22.160Z,6.10
2019-03-20T21:33:53.586Z,4.92
2019-03-20T21:36:39.019Z,4.35
2019-03-20T21:39:06.604Z,4.60
2019-03-20T21:41:51.999Z,3.45
2019-03-20T21:44:32.686Z,2.77
2019-03-20T21:47:01.455Z,3.90
2019-03-20T21:49:28.681Z,3.85
2019-03-20T21:51:55.890Z,3.52
2019-03-20T21:54:24.635Z,3.90
2019-03-20T21:57:08.402Z,3.20
2019-03-20T21:59:43.127Z,3.60
2019-03-20T22:02:17.831Z,3.50
2019-03-20T22:04:45.040Z,3.35
2019-03-20T22:07:12.374Z,3.25
2019-03-20T22:09:53.231Z,3.67
2019-03-20T22:12:24.903Z,3.65
2019-03-20T22:14:53.667Z,3.62
2019-03-20T22:17:49.907Z,3.75
2019-03-20T22:20:21.362Z,3.45
2019-03-20T22:22:50.127Z,5.05
2019-03-20T22:25:33.874Z,3.37
2019-03-20T22:28:02.643Z,5.03
2019-03-20T22:30:29.861Z,3.95
2019-03-20T22:33:15.307Z,3.25
2019-03-20T22:35:44.379Z,3.35
2019-03-20T22:38:13.130Z,3.77
2019-03-20T22:40:41.878Z,4.10
2019-03-20T22:43:13.431Z,3.20
2019-03-20T22:45:59.055Z,2.95
2019-03-20T22:48:44.357Z,3.98
2019-03-20T22:51:13.230Z,3.90
2019-03-20T22:53:57.196Z,4.12
2019-03-20T22:56:31.699Z,3.17
2019-03-20T22:58:58.988Z,3.40
2019-03-20T23:01:27.787Z,3.42
2019-03-20T23:03:59.592Z,3.12
2019-03-20T23:06:26.805Z,3.40
2019-03-20T23:08:54.075Z,3.10
2019-03-20T23:11:21.288Z,3.25
2019-03-20T23:13:48.501Z,2.40
2019-03-20T23:16:17.389Z,2.85
2019-03-20T23:18:44.626Z,4.50
2019-03-20T23:21:11.837Z,2.58
2019-03-20T23:23:39.178Z,3.20
2019-03-20T23:26:06.387Z,2.75
2019-03-20T23:28:33.631Z,3.55
2019-03-20T23:31:00.843Z,3.15
2019-03-20T23:33:28.057Z,2.40
2019-03-20T23:35:55.270Z,3.00
2019-03-20T23:38:22.505Z,2.55
2019-03-20T23:40:49.714Z,2.90
2019-03-20T23:43:16.922Z,3.27
2019-03-20T23:45:44.135Z,3.05
2019-03-20T23:48:12.889Z,2.95
2019-03-20T23:50:40.115Z,3.20
2019-03-20T23:53:07.350Z,3.47
2019-03-20T23:55:34.562Z,3.37
2019-03-20T23:58:01.782Z,2.37
